Time;durP1;ratioP1;P1;durP2;ratioP2;P2;SDS_P1;SDS_P2;PMS_P1;PMS_P2;Temp;Humidity;BMP_temperature;BMP_pressure;BME280_temperature;BME280_humidity;BME280_pressure;Samples;Min_cycle;Max_cycle;Signal;HPM_P1;HPM_P2
2021/10/24 00:01:32;;;;;;;10.77;5.88;;;;;;;;;;5003409;28;20030;-72
2021/10/24 00:03:57;;;;;;;10.80;6.13;;;;;;;;;;5000251;28;20045;-69
2021/10/24 00:06:23;;;;;;;10.38;5.82;;;;;;;;;;4995065;28;20049;-72
2021/10/24 00:08:49;;;;;;;10.27;5.47;;;;;;;;;;5001879;28;20172;-75
2021/10/24 00:11:14;;;;;;;10.43;6.10;;;;;;;;;;5007981;28;20135;-70
2021/10/24 00:13:39;;;;;;;14.52;6.97;;;;;;;;;;5005215;28;20720;-70
2021/10/24 00:16:05;;;;;;;10.00;5.85;;;;;;;;;;4996561;28;20393;-71
2021/10/24 00:18:30;;;;;;;10.32;5.68;;;;;;;;;;5000046;28;20041;-73
2021/10/24 00:20:56;;;;;;;12.48;5.82;;;;;;;;;;4995958;28;20150;-70
2021/10/24 00:23:21;;;;;;;12.95;6.25;;;;;;;;;;4995310;28;20048;-71
2021/10/24 00:25:46;;;;;;;11.95;5.97;;;;;;;;;;5005029;28;20021;-72
2021/10/24 00:28:11;;;;;;;13.73;6.63;;;;;;;;;;5001032;28;20026;-74
2021/10/24 00:30:37;;;;;;;13.30;6.22;;;;;;;;;;4997290;28;20065;-75
2021/10/24 00:33:03;;;;;;;12.75;6.55;;;;;;;;;;5005734;28;20017;-74
2021/10/24 00:35:28;;;;;;;13.30;6.25;;;;;;;;;;5002486;28;20049;-74
2021/10/24 00:37:53;;;;;;;13.38;6.32;;;;;;;;;;4994757;28;20380;-74
2021/10/24 00:40:19;;;;;;;9.68;5.57;;;;;;;;;;5002009;28;20034;-75
2021/10/24 00:42:49;;;;;;;13.98;5.72;;;;;;;;;;4998798;28;20028;-75
2021/10/24 00:45:14;;;;;;;10.57;5.63;;;;;;;;;;5004897;28;20030;-75
2021/10/24 00:47:39;;;;;;;14.45;5.90;;;;;;;;;;5002031;28;20037;-75
2021/10/24 00:50:04;;;;;;;16.88;6.45;;;;;;;;;;4998297;28;20110;-75
2021/10/24 00:52:30;;;;;;;10.73;6.03;;;;;;;;;;4992123;28;20390;-74
2021/10/24 00:54:55;;;;;;;13.15;6.47;;;;;;;;;;5001725;28;20035;-73
2021/10/24 00:57:20;;;;;;;13.05;5.68;;;;;;;;;;5003148;28;20033;-72
2021/10/24 00:59:45;;;;;;;11.43;5.68;;;;;;;;;;5002131;28;20113;-73
2021/10/24 01:02:10;;;;;;;9.65;5.55;;;;;;;;;;4994932;28;20631;-72
2021/10/24 01:04:36;;;;;;;11.98;5.38;;;;;;;;;;4995661;28;20084;-73
2021/10/24 01:07:04;;;;;;;10.10;5.72;;;;;;;;;;4997577;28;20022;-72
2021/10/24 01:09:31;;;;;;;12.32;5.90;;;;;;;;;;5001171;28;20072;-75
2021/10/24 01:11:57;;;;;;;13.23;6.38;;;;;;;;;;4995300;28;20101;-74
2021/10/24 01:14:22;;;;;;;12.77;6.88;;;;;;;;;;4996325;28;20049;-73
2021/10/24 01:16:49;;;;;;;11.88;6.28;;;;;;;;;;5001338;28;20052;-73
2021/10/24 01:19:14;;;;;;;10.30;5.70;;;;;;;;;;5002346;28;20018;-73
2021/10/24 01:21:40;;;;;;;10.82;5.45;;;;;;;;;;5013160;28;20457;-73
2021/10/24 01:24:05;;;;;;;10.15;5.18;;;;;;;;;;5008336;28;20052;-72
2021/10/24 01:26:33;;;;;;;10.07;5.13;;;;;;;;;;5012022;28;20021;-73
2021/10/24 01:28:58;;;;;;;9.68;5.13;;;;;;;;;;5008517;28;20045;-71
2021/10/24 01:31:23;;;;;;;13.75;5.65;;;;;;;;;;5003036;28;20594;-72
2021/10/24 01:33:49;;;;;;;12.57;5.05;;;;;;;;;;5004283;28;20482;-72
2021/10/24 01:36:14;;;;;;;9.63;5.25;;;;;;;;;;4999870;28;20080;-71
2021/10/24 01:38:43;;;;;;;9.82;5.35;;;;;;;;;;5004503;28;20044;-72
2021/10/24 01:41:10;;;;;;;11.45;5.40;;;;;;;;;;5018305;28;20014;-72
2021/10/24 01:43:35;;;;;;;11.32;5.55;;;;;;;;;;4999410;28;20077;-72
2021/10/24 01:46:01;;;;;;;10.60;5.63;;;;;;;;;;5001235;28;20064;-72
2021/10/24 01:48:26;;;;;;;11.18;5.68;;;;;;;;;;5003231;28;20021;-72
2021/10/24 01:50:52;;;;;;;13.57;6.25;;;;;;;;;;5004528;28;20088;-72
2021/10/24 01:53:20;;;;;;;14.88;6.35;;;;;;;;;;4997981;28;20030;-71
2021/10/24 01:55:46;;;;;;;12.50;6.07;;;;;;;;;;4998603;28;20025;-71
2021/10/24 01:58:11;;;;;;;12.50;6.70;;;;;;;;;;5010967;28;20461;-71
2021/10/24 02:00:36;;;;;;;10.25;5.90;;;;;;;;;;5007201;28;20044;-72
2021/10/24 02:03:02;;;;;;;12.27;6.35;;;;;;;;;;5002974;28;20061;-72
2021/10/24 02:05:27;;;;;;;13.15;5.93;;;;;;;;;;5009487;28;20033;-72
2021/10/24 02:07:52;;;;;;;15.27;6.25;;;;;;;;;;5004496;28;20029;-71
2021/10/24 02:10:17;;;;;;;12.00;6.63;;;;;;;;;;4998352;28;20433;-71
2021/10/24 02:12:43;;;;;;;15.00;7.07;;;;;;;;;;5003883;28;20030;-72
2021/10/24 02:15:09;;;;;;;14.75;6.53;;;;;;;;;;5006064;28;20078;-74
2021/10/24 02:17:34;;;;;;;11.05;6.32;;;;;;;;;;5001012;28;20037;-74
2021/10/24 02:20:00;;;;;;;14.02;6.85;;;;;;;;;;4996131;28;20022;-74
2021/10/24 02:22:25;;;;;;;13.13;6.70;;;;;;;;;;4996843;28;20038;-72
2021/10/24 02:24:51;;;;;;;15.15;7.47;;;;;;;;;;5009730;28;20069;-73
2021/10/24 02:27:16;;;;;;;14.40;6.78;;;;;;;;;;5004227;28;20036;-73
2021/10/24 02:29:42;;;;;;;14.30;6.88;;;;;;;;;;5006248;28;20039;-73
2021/10/24 02:32:07;;;;;;;15.98;7.47;;;;;;;;;;5003471;28;20054;-73
2021/10/24 02:34:32;;;;;;;13.95;6.57;;;;;;;;;;5002281;28;20105;-73
2021/10/24 02:36:57;;;;;;;14.15;7.53;;;;;;;;;;5009305;28;20022;-73
2021/10/24 02:39:22;;;;;;;13.65;7.32;;;;;;;;;;4998898;28;20074;-72
2021/10/24 02:41:48;;;;;;;20.15;8.40;;;;;;;;;;5004160;28;20101;-74
2021/10/24 02:44:13;;;;;;;17.05;7.60;;;;;;;;;;4998809;28;20504;-72
2021/10/24 02:46:39;;;;;;;15.45;7.63;;;;;;;;;;4997877;28;20113;-72
2021/10/24 02:49:04;;;;;;;10.77;7.25;;;;;;;;;;5002520;28;20024;-74
2021/10/24 02:51:30;;;;;;;16.38;8.13;;;;;;;;;;4997401;28;20502;-72
2021/10/24 02:53:55;;;;;;;15.13;7.90;;;;;;;;;;4996230;28;20396;-72
2021/10/24 02:56:20;;;;;;;12.88;7.78;;;;;;;;;;5002520;28;20034;-72
2021/10/24 02:58:46;;;;;;;12.38;7.22;;;;;;;;;;5000664;28;20084;-72
2021/10/24 03:01:11;;;;;;;14.82;8.00;;;;;;;;;;5007622;28;20037;-72
2021/10/24 03:03:36;;;;;;;14.15;7.70;;;;;;;;;;5001218;28;20100;-73
2021/10/24 03:06:01;;;;;;;12.02;7.47;;;;;;;;;;5005232;28;20482;-73
2021/10/24 03:08:26;;;;;;;12.02;7.43;;;;;;;;;;4999776;28;20030;-71
2021/10/24 03:10:51;;;;;;;13.90;7.63;;;;;;;;;;5001038;28;20026;-72
2021/10/24 03:13:17;;;;;;;12.43;8.25;;;;;;;;;;5009022;28;20144;-72
2021/10/24 03:15:42;;;;;;;14.55;8.30;;;;;;;;;;5004551;28;20021;-72
2021/10/24 03:18:07;;;;;;;16.27;7.88;;;;;;;;;;4999520;28;20216;-72
2021/10/24 03:20:33;;;;;;;12.68;7.57;;;;;;;;;;5000560;28;20038;-73
2021/10/24 03:22:58;;;;;;;14.68;8.50;;;;;;;;;;4993878;28;20030;-72
2021/10/24 03:25:24;;;;;;;12.00;7.38;;;;;;;;;;5002545;28;20025;-72
2021/10/24 03:27:49;;;;;;;14.05;7.45;;;;;;;;;;5009218;28;20085;-71
2021/10/24 03:30:14;;;;;;;11.27;7.65;;;;;;;;;;4999719;28;20418;-74
2021/10/24 03:32:39;;;;;;;12.95;7.72;;;;;;;;;;5004692;28;20055;-72
2021/10/24 03:35:04;;;;;;;17.77;8.18;;;;;;;;;;4994007;28;20443;-75
2021/10/24 03:37:30;;;;;;;12.18;8.02;;;;;;;;;;5006746;28;20014;-75
2021/10/24 03:39:55;;;;;;;12.52;7.78;;;;;;;;;;5006460;28;20045;-73
2021/10/24 03:42:20;;;;;;;14.68;8.20;;;;;;;;;;4996653;28;20026;-73
2021/10/24 03:44:45;;;;;;;12.82;8.25;;;;;;;;;;4996349;28;20042;-73
2021/10/24 03:47:10;;;;;;;18.85;9.15;;;;;;;;;;4997198;28;20378;-74
2021/10/24 03:49:36;;;;;;;14.15;8.45;;;;;;;;;;5002335;28;20060;-74
2021/10/24 03:52:01;;;;;;;16.75;8.35;;;;;;;;;;4999648;28;20116;-74
2021/10/24 03:54:26;;;;;;;17.33;8.70;;;;;;;;;;5000446;28;20041;-73
2021/10/24 03:56:51;;;;;;;16.15;7.90;;;;;;;;;;5008677;28;20021;-73
2021/10/24 03:59:17;;;;;;;12.88;8.27;;;;;;;;;;5007555;28;20034;-73
2021/10/24 04:01:42;;;;;;;16.05;8.73;;;;;;;;;;5001941;28;20370;-74
2021/10/24 04:04:07;;;;;;;17.08;8.98;;;;;;;;;;5005392;28;20581;-74
2021/10/24 04:06:33;;;;;;;19.48;9.77;;;;;;;;;;5005254;28;20038;-74
2021/10/24 04:08:58;;;;;;;17.00;9.00;;;;;;;;;;4998212;28;20044;-73
2021/10/24 04:11:24;;;;;;;17.38;9.73;;;;;;;;;;4994622;28;20132;-73
2021/10/24 04:13:49;;;;;;;15.57;9.05;;;;;;;;;;4998745;28;20033;-73
2021/10/24 04:16:14;;;;;;;15.60;9.82;;;;;;;;;;5002825;28;20025;-74
2021/10/24 04:18:39;;;;;;;16.13;9.52;;;;;;;;;;4996046;28;20036;-73
2021/10/24 04:21:04;;;;;;;14.00;8.70;;;;;;;;;;4997100;28;20386;-73
2021/10/24 04:23:29;;;;;;;15.52;9.45;;;;;;;;;;5008183;28;20055;-73
2021/10/24 04:25:55;;;;;;;17.25;10.20;;;;;;;;;;4999606;28;20053;-73
2021/10/24 04:28:21;;;;;;;18.77;10.05;;;;;;;;;;5005288;28;20033;-74
2021/10/24 04:30:46;;;;;;;18.33;9.45;;;;;;;;;;4998450;28;20486;-74
2021/10/24 04:33:13;;;;;;;14.38;9.25;;;;;;;;;;4997364;28;20034;-74
2021/10/24 04:35:38;;;;;;;14.98;9.68;;;;;;;;;;5005492;28;20033;-74
2021/10/24 04:38:03;;;;;;;15.38;10.18;;;;;;;;;;4999748;28;20034;-74
2021/10/24 04:40:28;;;;;;;15.80;10.48;;;;;;;;;;5000051;28;20017;-74
2021/10/24 04:42:53;;;;;;;18.70;10.07;;;;;;;;;;5001052;28;20034;-74
2021/10/24 04:45:19;;;;;;;14.88;9.30;;;;;;;;;;5006643;28;20038;-74
2021/10/24 04:47:44;;;;;;;19.20;9.32;;;;;;;;;;5000937;28;20096;-74
2021/10/24 04:50:09;;;;;;;17.60;10.02;;;;;;;;;;4995707;28;20030;-74
2021/10/24 04:52:36;;;;;;;15.63;10.02;;;;;;;;;;5006680;28;20026;-74
2021/10/24 04:55:01;;;;;;;14.98;9.90;;;;;;;;;;5000416;28;20049;-73
2021/10/24 04:57:26;;;;;;;17.98;10.43;;;;;;;;;;5002179;28;20022;-74
2021/10/24 04:59:51;;;;;;;16.38;9.60;;;;;;;;;;4993069;28;20089;-74
2021/10/24 05:02:16;;;;;;;19.42;10.13;;;;;;;;;;4998151;28;20136;-72
2021/10/24 05:04:42;;;;;;;17.85;9.93;;;;;;;;;;4998618;28;20048;-72
2021/10/24 05:07:07;;;;;;;16.75;10.38;;;;;;;;;;5007294;28;20029;-72
2021/10/24 05:09:32;;;;;;;17.40;10.20;;;;;;;;;;4994059;28;20053;-71
2021/10/24 05:11:57;;;;;;;16.02;9.30;;;;;;;;;;4997085;28;20014;-72
2021/10/24 05:14:22;;;;;;;16.98;9.82;;;;;;;;;;5007295;28;20112;-72
2021/10/24 05:16:48;;;;;;;17.48;10.40;;;;;;;;;;5000207;28;20110;-73
2021/10/24 05:19:13;;;;;;;14.95;9.38;;;;;;;;;;4998040;28;20100;-73
2021/10/24 05:21:38;;;;;;;16.27;10.20;;;;;;;;;;4994829;28;20421;-73
2021/10/24 05:24:03;;;;;;;16.20;10.35;;;;;;;;;;4997088;28;20117;-74
2021/10/24 05:26:29;;;;;;;18.98;11.00;;;;;;;;;;5006362;28;20053;-74
2021/10/24 05:28:54;;;;;;;16.80;10.02;;;;;;;;;;4998407;28;20050;-73
2021/10/24 05:31:19;;;;;;;15.43;10.15;;;;;;;;;;4993430;28;20072;-73
2021/10/24 05:33:45;;;;;;;16.65;10.25;;;;;;;;;;4992131;28;20463;-73
2021/10/24 05:36:10;;;;;;;18.58;10.32;;;;;;;;;;4999284;28;20029;-73
2021/10/24 05:38:35;;;;;;;15.80;10.18;;;;;;;;;;4998606;28;20024;-71
2021/10/24 05:41:00;;;;;;;19.25;10.68;;;;;;;;;;4999584;28;20437;-71
2021/10/24 05:43:26;;;;;;;18.52;10.52;;;;;;;;;;5003373;28;20034;-73
2021/10/24 05:45:52;;;;;;;20.95;11.02;;;;;;;;;;4999852;28;20030;-73
2021/10/24 05:48:19;;;;;;;16.83;10.07;;;;;;;;;;4993172;28;20381;-73
2021/10/24 05:50:44;;;;;;;17.63;10.20;;;;;;;;;;4999731;28;20038;-72
2021/10/24 05:53:09;;;;;;;18.17;9.93;;;;;;;;;;4997482;28;20037;-72
2021/10/24 05:55:36;;;;;;;16.40;10.60;;;;;;;;;;4997471;28;20038;-72
2021/10/24 05:58:01;;;;;;;16.23;10.02;;;;;;;;;;4997551;28;20030;-72
2021/10/24 06:00:27;;;;;;;16.60;10.70;;;;;;;;;;5003995;28;20381;-72
2021/10/24 06:02:52;;;;;;;16.80;11.05;;;;;;;;;;4993273;28;20457;-72
2021/10/24 06:05:17;;;;;;;17.42;11.13;;;;;;;;;;5000158;28;20052;-73
2021/10/24 06:07:42;;;;;;;16.98;10.88;;;;;;;;;;5008633;28;20029;-73
2021/10/24 06:10:18;;;;;;;18.17;10.73;;;;;;;;;;5006668;28;20037;-72
2021/10/24 06:12:51;;;;;;;18.02;11.35;;;;;;;;;;4994303;28;20026;-71
2021/10/24 06:15:17;;;;;;;16.08;10.82;;;;;;;;;;5003777;28;20056;-72
2021/10/24 06:17:43;;;;;;;18.25;10.63;;;;;;;;;;5006909;28;21456;-73
2021/10/24 06:20:09;;;;;;;19.60;9.82;;;;;;;;;;4998513;28;20117;-73
2021/10/24 06:22:34;;;;;;;17.75;10.65;;;;;;;;;;5003845;28;20022;-73
2021/10/24 06:25:00;;;;;;;16.00;9.93;;;;;;;;;;5007926;28;20642;-73
2021/10/24 06:27:25;;;;;;;15.68;9.98;;;;;;;;;;5002158;28;20022;-72
2021/10/24 06:29:50;;;;;;;17.10;10.05;;;;;;;;;;5000556;28;20022;-73
2021/10/24 06:32:15;;;;;;;15.30;9.32;;;;;;;;;;5005710;28;20024;-73
2021/10/24 06:34:41;;;;;;;15.18;10.00;;;;;;;;;;5008782;28;20065;-72
2021/10/24 06:37:06;;;;;;;15.90;9.32;;;;;;;;;;5002514;28;20101;-72
2021/10/24 06:39:31;;;;;;;15.80;9.27;;;;;;;;;;5006855;28;20415;-72
2021/10/24 06:41:56;;;;;;;14.75;9.05;;;;;;;;;;5004629;28;20465;-73
2021/10/24 06:44:21;;;;;;;14.20;9.25;;;;;;;;;;5007299;28;20160;-73
2021/10/24 06:46:47;;;;;;;16.27;9.88;;;;;;;;;;5005197;28;20014;-74
2021/10/24 06:49:12;;;;;;;16.88;9.98;;;;;;;;;;5002404;28;20023;-73
2021/10/24 06:51:37;;;;;;;13.40;8.43;;;;;;;;;;5002834;28;20022;-73
2021/10/24 06:54:02;;;;;;;13.20;8.95;;;;;;;;;;5004453;28;20029;-74
2021/10/24 06:56:28;;;;;;;11.23;8.20;;;;;;;;;;5007346;28;20474;-73
2021/10/24 06:58:53;;;;;;;12.90;8.10;;;;;;;;;;5007323;28;20481;-72
2021/10/24 07:01:18;;;;;;;12.93;9.10;;;;;;;;;;5002069;28;20026;-61
2021/10/24 07:03:43;;;;;;;10.20;7.50;;;;;;;;;;5003591;28;20192;-61
2021/10/24 07:06:08;;;;;;;13.63;8.68;;;;;;;;;;5003918;28;20021;-61
2021/10/24 07:08:34;;;;;;;13.98;8.20;;;;;;;;;;5004797;28;20606;-62
2021/10/24 07:10:59;;;;;;;10.98;7.05;;;;;;;;;;5001043;28;20104;-61
2021/10/24 07:13:24;;;;;;;11.77;7.20;;;;;;;;;;5003117;28;20497;-63
2021/10/24 07:15:50;;;;;;;9.18;6.15;;;;;;;;;;5006047;28;20017;-62
2021/10/24 07:18:15;;;;;;;10.25;7.03;;;;;;;;;;5007330;28;20022;-62
2021/10/24 07:20:40;;;;;;;10.30;6.35;;;;;;;;;;5000933;28;20064;-62
2021/10/24 07:23:05;;;;;;;11.23;6.72;;;;;;;;;;5004678;28;20030;-62
2021/10/24 07:25:30;;;;;;;9.63;6.25;;;;;;;;;;5000188;28;20037;-63
2021/10/24 07:27:56;;;;;;;10.75;6.50;;;;;;;;;;4998716;28;20080;-62
2021/10/24 07:30:21;;;;;;;10.30;6.85;;;;;;;;;;4994237;28;20037;-61
2021/10/24 07:32:46;;;;;;;10.18;6.10;;;;;;;;;;4999255;28;20018;-61
2021/10/24 07:35:12;;;;;;;8.25;6.38;;;;;;;;;;5003859;28;20018;-61
2021/10/24 07:37:38;;;;;;;10.55;7.10;;;;;;;;;;5007167;28;20034;-62
2021/10/24 07:40:04;;;;;;;10.00;6.40;;;;;;;;;;5003791;28;20026;-61
2021/10/24 07:42:29;;;;;;;10.40;7.38;;;;;;;;;;5007066;28;20134;-61
2021/10/24 07:44:55;;;;;;;9.85;6.70;;;;;;;;;;4998208;28;20404;-62
2021/10/24 07:47:20;;;;;;;9.52;6.28;;;;;;;;;;5001674;28;20176;-62
2021/10/24 07:49:45;;;;;;;11.23;6.88;;;;;;;;;;4999008;28;20076;-61
2021/10/24 07:52:12;;;;;;;9.18;5.78;;;;;;;;;;5005132;28;20142;-62
2021/10/24 07:54:37;;;;;;;9.23;5.10;;;;;;;;;;5008559;28;20029;-62
2021/10/24 07:57:04;;;;;;;10.30;5.53;;;;;;;;;;4999686;28;21131;-63
2021/10/24 07:59:29;;;;;;;9.25;5.40;;;;;;;;;;5007486;28;20083;-62
2021/10/24 08:01:54;;;;;;;8.52;5.90;;;;;;;;;;5003738;28;20390;-60
2021/10/24 08:04:20;;;;;;;11.23;6.70;;;;;;;;;;4993809;28;20060;-63
2021/10/24 08:06:45;;;;;;;8.73;5.30;;;;;;;;;;5003467;28;20382;-62
2021/10/24 08:09:11;;;;;;;11.77;5.60;;;;;;;;;;4993322;28;20033;-62
2021/10/24 08:11:37;;;;;;;8.88;5.80;;;;;;;;;;4996733;28;20026;-61
2021/10/24 08:14:03;;;;;;;9.73;5.93;;;;;;;;;;4997099;28;20026;-61
2021/10/24 08:16:29;;;;;;;8.40;5.03;;;;;;;;;;5001154;28;20014;-62
2021/10/24 08:18:54;;;;;;;8.18;4.63;;;;;;;;;;4997869;28;20044;-61
2021/10/24 08:21:19;;;;;;;7.80;5.10;;;;;;;;;;4992464;28;20069;-62
2021/10/24 08:23:45;;;;;;;9.23;4.50;;;;;;;;;;5004555;28;20100;-62
2021/10/24 08:26:11;;;;;;;9.50;4.72;;;;;;;;;;5008050;28;20080;-64
2021/10/24 08:28:37;;;;;;;6.63;4.20;;;;;;;;;;4996570;28;20501;-62
2021/10/24 08:31:02;;;;;;;6.00;4.13;;;;;;;;;;5004464;28;20874;-61
2021/10/24 08:33:29;;;;;;;8.10;4.03;;;;;;;;;;5004153;28;20034;-61
2021/10/24 08:35:54;;;;;;;5.65;3.60;;;;;;;;;;5001495;28;20045;-61
2021/10/24 08:38:20;;;;;;;7.22;3.85;;;;;;;;;;5001283;28;20114;-61
2021/10/24 08:40:46;;;;;;;6.25;3.67;;;;;;;;;;4995999;28;20034;-61
2021/10/24 08:43:17;;;;;;;5.22;3.70;;;;;;;;;;4999714;28;20092;-62
2021/10/24 08:45:43;;;;;;;5.65;3.92;;;;;;;;;;5001452;28;20026;-62
2021/10/24 08:48:08;;;;;;;7.32;4.10;;;;;;;;;;5000064;28;20030;-62
2021/10/24 08:50:33;;;;;;;6.55;3.78;;;;;;;;;;5005945;28;20025;-62
2021/10/24 08:53:00;;;;;;;6.05;4.18;;;;;;;;;;5001628;28;20021;-61
2021/10/24 08:55:25;;;;;;;6.40;4.15;;;;;;;;;;5001253;28;20026;-62
2021/10/24 08:57:51;;;;;;;7.95;3.90;;;;;;;;;;5002021;28;20018;-60
2021/10/24 09:00:17;;;;;;;7.63;4.25;;;;;;;;;;5009023;28;20033;-63
2021/10/24 09:02:53;;;;;;;6.05;3.88;;;;;;;;;;5000260;28;20457;-61
2021/10/24 09:05:32;;;;;;;6.53;4.13;;;;;;;;;;5004155;28;20038;-62
2021/10/24 09:07:57;;;;;;;6.47;3.80;;;;;;;;;;5005277;28;20097;-61
2021/10/24 09:10:42;;;;;;;6.65;3.92;;;;;;;;;;4999424;28;20509;-62
2021/10/24 09:13:11;;;;;;;7.55;3.70;;;;;;;;;;5006374;28;20464;-63
2021/10/24 09:15:48;;;;;;;5.97;3.83;;;;;;;;;;4989715;28;20040;-62
2021/10/24 09:18:14;;;;;;;9.52;3.67;;;;;;;;;;5002029;28;20280;-61
2021/10/24 09:20:39;;;;;;;6.60;3.85;;;;;;;;;;4989554;28;20031;-62
2021/10/24 09:23:05;;;;;;;5.55;3.33;;;;;;;;;;4995263;28;20030;-62
2021/10/24 09:25:31;;;;;;;6.97;3.63;;;;;;;;;;4994813;28;20382;-61
2021/10/24 09:27:57;;;;;;;7.30;3.95;;;;;;;;;;5002279;28;20019;-62
2021/10/24 09:30:25;;;;;;;6.95;3.90;;;;;;;;;;4996055;28;20538;-64
2021/10/24 09:32:59;;;;;;;5.82;3.20;;;;;;;;;;4999955;28;20022;-62
2021/10/24 09:35:30;;;;;;;4.57;3.33;;;;;;;;;;4992332;28;20053;-62
2021/10/24 09:37:59;;;;;;;5.30;3.30;;;;;;;;;;5002365;28;20038;-62
2021/10/24 09:40:29;;;;;;;6.13;3.42;;;;;;;;;;4999875;28;20386;-62
2021/10/24 09:42:54;;;;;;;;;;;;;;;;;;4999521;28;20034;-61
2021/10/24 09:45:19;;;;;;;5.95;3.30;;;;;;;;;;4993403;28;19914;-62
2021/10/24 09:47:46;;;;;;;4.82;3.17;;;;;;;;;;5007876;28;20486;-62
2021/10/24 09:50:32;;;;;;;6.13;3.47;;;;;;;;;;5007078;28;20026;-62
2021/10/24 09:53:12;;;;;;;4.80;3.22;;;;;;;;;;5006561;28;20025;-63
2021/10/24 09:55:37;;;;;;;6.07;3.33;;;;;;;;;;5003967;28;20053;-62
2021/10/24 09:58:03;;;;;;;6.45;3.35;;;;;;;;;;5002988;28;20088;-62
2021/10/24 10:00:29;;;;;;;6.72;3.75;;;;;;;;;;5005475;28;20060;-62
2021/10/24 10:02:54;;;;;;;4.43;2.65;;;;;;;;;;5002563;28;20038;-62
2021/10/24 10:05:19;;;;;;;7.30;3.88;;;;;;;;;;5003775;28;20109;-61
2021/10/24 10:07:45;;;;;;;5.07;2.92;;;;;;;;;;5001266;28;20486;-62
2021/10/24 10:10:10;;;;;;;6.45;3.88;;;;;;;;;;5013640;28;20029;-61
2021/10/24 10:12:35;;;;;;;5.40;3.00;;;;;;;;;;5007371;28;20021;-61
2021/10/24 10:15:02;;;;;;;5.68;2.95;;;;;;;;;;5012862;28;20156;-61
2021/10/24 10:17:28;;;;;;;4.10;2.70;;;;;;;;;;5004956;28;20030;-62
2021/10/24 10:19:53;;;;;;;5.50;3.35;;;;;;;;;;5012026;28;20401;-62
2021/10/24 10:22:21;;;;;;;5.45;2.58;;;;;;;;;;4998034;28;20076;-62
2021/10/24 10:24:47;;;;;;;6.22;2.80;;;;;;;;;;5004273;28;20085;-61
2021/10/24 10:27:32;;;;;;;4.03;2.90;;;;;;;;;;5005529;28;20117;-62
2021/10/24 10:29:58;;;;;;;3.40;2.53;;;;;;;;;;4996424;28;20476;-62
2021/10/24 10:32:32;;;;;;;4.93;2.53;;;;;;;;;;5009948;28;20067;-63
2021/10/24 10:34:57;;;;;;;3.60;2.83;;;;;;;;;;5007551;28;20030;-61
2021/10/24 10:37:42;;;;;;;4.35;2.67;;;;;;;;;;5009326;28;20033;-61
2021/10/24 10:40:15;;;;;;;5.75;2.90;;;;;;;;;;5005416;28;20084;-61
2021/10/24 10:42:43;;;;;;;6.03;2.65;;;;;;;;;;4996900;28;20032;-61
2021/10/24 10:45:14;;;;;;;5.35;3.05;;;;;;;;;;4999854;28;20080;-61
2021/10/24 10:47:53;;;;;;;4.30;2.95;;;;;;;;;;5000919;28;20034;-61
2021/10/24 10:50:39;;;;;;;4.07;2.70;;;;;;;;;;4998179;28;20133;-62
2021/10/24 10:53:08;;;;;;;5.25;2.78;;;;;;;;;;5003870;28;20034;-61
2021/10/24 10:55:53;;;;;;;3.55;2.13;;;;;;;;;;5005412;28;20034;-60
2021/10/24 10:58:34;;;;;;;5.38;2.70;;;;;;;;;;5004715;28;20061;-61
2021/10/24 11:01:00;;;;;;;4.10;2.15;;;;;;;;;;5013578;28;20087;-62
2021/10/24 11:03:44;;;;;;;5.75;2.90;;;;;;;;;;5003204;28;20450;-61
2021/10/24 11:06:25;;;;;;;4.25;2.58;;;;;;;;;;5003036;28;20120;-62
2021/10/24 11:08:54;;;;;;;4.57;2.63;;;;;;;;;;4994287;28;20399;-60
2021/10/24 11:11:54;;;;;;;3.97;2.50;;;;;;;;;;4993990;28;20030;-62
2021/10/24 11:14:20;;;;;;;4.05;2.45;;;;;;;;;;5009275;28;20109;-62
2021/10/24 11:16:46;;;;;;;4.47;2.65;;;;;;;;;;5000185;28;20049;-62
2021/10/24 11:19:31;;;;;;;2.75;2.13;;;;;;;;;;4999509;28;20029;-61
2021/10/24 11:21:57;;;;;;;4.07;2.40;;;;;;;;;;5002908;28;20053;-60
2021/10/24 11:24:23;;;;;;;3.25;2.20;;;;;;;;;;5000584;28;20042;-61
2021/10/24 11:26:58;;;;;;;3.38;2.20;;;;;;;;;;4999079;28;20025;-62
2021/10/24 11:29:23;;;;;;;3.65;2.30;;;;;;;;;;4996122;28;20026;-61
2021/10/24 11:32:08;;;;;;;4.50;2.75;;;;;;;;;;5011171;28;20478;-62
2021/10/24 11:34:33;;;;;;;3.72;2.28;;;;;;;;;;5000260;28;20032;-62
2021/10/24 11:36:58;;;;;;;5.82;2.60;;;;;;;;;;5002215;28;20022;-61
2021/10/24 11:39:24;;;;;;;3.75;2.13;;;;;;;;;;5004011;28;20017;-60
2021/10/24 11:41:49;;;;;;;4.28;2.50;;;;;;;;;;4990898;28;20470;-61
2021/10/24 11:44:14;;;;;;;4.90;3.10;;;;;;;;;;5002557;28;20479;-60
2021/10/24 11:46:39;;;;;;;5.18;2.90;;;;;;;;;;5005707;28;20096;-61
2021/10/24 11:49:05;;;;;;;7.10;2.67;;;;;;;;;;4999794;28;20038;-61
2021/10/24 11:51:34;;;;;;;4.97;2.28;;;;;;;;;;5001104;28;20374;-62
2021/10/24 11:54:00;;;;;;;3.53;2.13;;;;;;;;;;5009248;28;20104;-62
2021/10/24 12:01:25;;;;;;;4.55;2.38;;;;;;;;;;4994729;28;20080;-61
2021/10/24 12:04:03;;;;;;;3.63;2.17;;;;;;;;;;4990165;28;20451;-61
2021/10/24 12:06:51;;;;;;;4.20;2.42;;;;;;;;;;4995697;28;20038;-61
2021/10/24 12:09:25;;;;;;;3.92;2.70;;;;;;;;;;4990917;28;20454;-61
2021/10/24 12:11:50;;;;;;;5.28;2.50;;;;;;;;;;4993788;28;20049;-62
2021/10/24 12:14:15;;;;;;;6.15;3.25;;;;;;;;;;4994226;28;20484;-61
2021/10/24 12:16:42;;;;;;;3.97;2.63;;;;;;;;;;5000308;28;20029;-62
2021/10/24 12:19:12;;;;;;;4.32;2.60;;;;;;;;;;5005206;28;20096;-61
2021/10/24 12:21:38;;;;;;;4.40;2.70;;;;;;;;;;4995048;28;20687;-60
2021/10/24 12:24:13;;;;;;;6.10;2.30;;;;;;;;;;4989593;28;20144;-60
2021/10/24 12:26:38;;;;;;;4.35;2.70;;;;;;;;;;5019292;28;20040;-61
2021/10/24 12:29:11;;;;;;;4.30;2.58;;;;;;;;;;5004139;28;20206;-62
2021/10/24 12:31:36;;;;;;;5.93;3.40;;;;;;;;;;5001653;28;20037;-61
2021/10/24 12:34:09;;;;;;;5.13;3.00;;;;;;;;;;5019292;28;20046;-62
2021/10/24 12:36:35;;;;;;;3.97;2.35;;;;;;;;;;5000965;28;20057;-60
2021/10/24 12:39:02;;;;;;;5.28;3.00;;;;;;;;;;4996935;28;20018;-61
2021/10/24 12:41:36;;;;;;;4.72;2.72;;;;;;;;;;4994776;28;20052;-61
2021/10/24 12:44:03;;;;;;;5.57;2.88;;;;;;;;;;4990224;28;20442;-61
2021/10/24 12:46:33;;;;;;;4.80;2.70;;;;;;;;;;4999845;28;20030;-62
2021/10/24 12:49:08;;;;;;;3.85;2.35;;;;;;;;;;4996584;28;20126;-61
2021/10/24 12:51:33;;;;;;;5.18;2.50;;;;;;;;;;4997795;28;20022;-60
2021/10/24 12:53:59;;;;;;;3.88;2.45;;;;;;;;;;5002745;28;20097;-60
2021/10/24 12:56:25;;;;;;;4.68;2.40;;;;;;;;;;4994738;28;20092;-61
2021/10/24 12:58:51;;;;;;;6.25;2.83;;;;;;;;;;5011714;28;20042;-61
2021/10/24 13:01:30;;;;;;;5.43;2.50;;;;;;;;;;4993180;28;20022;-61
2021/10/24 13:03:56;;;;;;;4.40;2.50;;;;;;;;;;4997082;28;20482;-62
2021/10/24 13:06:22;;;;;;;4.90;2.53;;;;;;;;;;4991185;28;20026;-61
2021/10/24 13:08:47;;;;;;;4.85;3.03;;;;;;;;;;5003723;28;20102;-61
2021/10/24 13:11:13;;;;;;;3.88;2.50;;;;;;;;;;4996646;28;20030;-60
2021/10/24 13:13:39;;;;;;;5.68;2.83;;;;;;;;;;4994400;28;20026;-62
2021/10/24 13:16:04;;;;;;;4.32;2.50;;;;;;;;;;5004379;28;20040;-63
2021/10/24 13:18:29;;;;;;;4.57;2.80;;;;;;;;;;5007196;28;20022;-62
2021/10/24 13:21:03;;;;;;;4.60;2.70;;;;;;;;;;5011322;28;20029;-62
2021/10/24 13:23:29;;;;;;;4.82;2.65;;;;;;;;;;5002273;28;20485;-66
2021/10/24 13:25:54;;;;;;;4.22;2.38;;;;;;;;;;5002391;28;20045;-64
2021/10/24 13:28:19;;;;;;;4.85;2.83;;;;;;;;;;4993968;28;20639;-64
2021/10/24 13:30:45;;;;;;;3.92;2.53;;;;;;;;;;4996671;28;20038;-64
2021/10/24 13:33:10;;;;;;;4.32;2.40;;;;;;;;;;5010080;28;20030;-65
2021/10/24 13:35:35;;;;;;;3.67;2.13;;;;;;;;;;5004936;28;20481;-63
2021/10/24 13:38:00;;;;;;;3.70;2.30;;;;;;;;;;4999299;28;20022;-65
2021/10/24 13:40:25;;;;;;;4.80;2.20;;;;;;;;;;4996205;28;20058;-65
2021/10/24 13:42:51;;;;;;;4.03;2.45;;;;;;;;;;4994161;28;20532;-63
2021/10/24 13:45:17;;;;;;;3.30;2.45;;;;;;;;;;5008488;28;20030;-64
2021/10/24 13:47:42;;;;;;;7.13;2.78;;;;;;;;;;5003388;28;20031;-63
2021/10/24 13:50:08;;;;;;;3.90;2.63;;;;;;;;;;5001617;28;20390;-64
2021/10/24 13:52:33;;;;;;;5.50;2.70;;;;;;;;;;5006857;28;20022;-64
2021/10/24 13:54:59;;;;;;;6.10;2.80;;;;;;;;;;4996698;28;20030;-64
2021/10/24 13:57:24;;;;;;;5.03;2.70;;;;;;;;;;5000944;28;20088;-64
2021/10/24 13:59:49;;;;;;;4.77;2.50;;;;;;;;;;5002995;28;20041;-63
2021/10/24 14:02:18;;;;;;;6.72;3.05;;;;;;;;;;4999065;28;20285;-64
2021/10/24 14:04:44;;;;;;;4.78;2.70;;;;;;;;;;5003090;28;20661;-63
2021/10/24 14:07:09;;;;;;;10.93;3.08;;;;;;;;;;5004325;28;20030;-63
2021/10/24 14:09:34;;;;;;;3.83;2.65;;;;;;;;;;5000344;28;20081;-64
2021/10/24 14:12:00;;;;;;;6.28;2.75;;;;;;;;;;5005151;28;20408;-64
2021/10/24 14:14:25;;;;;;;6.00;2.95;;;;;;;;;;4993959;28;20026;-63
2021/10/24 14:16:50;;;;;;;4.75;3.30;;;;;;;;;;5005274;28;20110;-65
2021/10/24 14:19:15;;;;;;;6.60;3.03;;;;;;;;;;4998510;28;20408;-63
2021/10/24 14:21:41;;;;;;;4.45;2.75;;;;;;;;;;4996433;28;20022;-63
2021/10/24 14:24:06;;;;;;;4.20;2.65;;;;;;;;;;5006595;28;20034;-63
2021/10/24 14:26:31;;;;;;;4.50;2.50;;;;;;;;;;4996551;28;20065;-63
2021/10/24 14:28:57;;;;;;;3.80;2.20;;;;;;;;;;4999707;28;20177;-62
2021/10/24 14:31:22;;;;;;;4.78;2.50;;;;;;;;;;5002478;28;20030;-62
2021/10/24 14:33:48;;;;;;;2.95;2.40;;;;;;;;;;4999386;28;20068;-63
2021/10/24 14:36:13;;;;;;;3.92;2.33;;;;;;;;;;5011008;28;20129;-63
2021/10/24 14:38:38;;;;;;;4.20;2.67;;;;;;;;;;5000421;28;20096;-63